sensor_id;sensor_type;location;lat;lon;timestamp;temperature;humidity
27803;DHT22;15182;48.174;11.562;2023-08-07T00:00:47;16.50;97.60
27803;DHT22;15182;48.174;11.562;2023-08-07T00:03:15;16.50;98.00
27803;DHT22;15182;48.174;11.562;2023-08-07T00:05:45;16.50;97.60
27803;DHT22;15182;48.174;11.562;2023-08-07T00:08:13;16.50;97.50
27803;DHT22;15182;48.174;11.562;2023-08-07T00:10:41;16.50;97.50
27803;DHT22;15182;48.174;11.562;2023-08-07T00:13:08;16.50;97.50
27803;DHT22;15182;48.174;11.562;2023-08-07T00:15:37;16.50;97.50
27803;DHT22;15182;48.174;11.562;2023-08-07T00:18:07;16.40;97.50
27803;DHT22;15182;48.174;11.562;2023-08-07T00:20:35;16.50;97.60
27803;DHT22;15182;48.174;11.562;2023-08-07T00:23:02;16.50;97.60
27803;DHT22;15182;48.174;11.562;2023-08-07T00:25:30;16.40;97.60
27803;DHT22;15182;48.174;11.562;2023-08-07T00:27:58;16.50;97.70
27803;DHT22;15182;48.174;11.562;2023-08-07T00:30:26;16.50;97.80
27803;DHT22;15182;48.174;11.562;2023-08-07T00:32:53;16.40;97.70
27803;DHT22;15182;48.174;11.562;2023-08-07T00:35:22;16.40;97.70
27803;DHT22;15182;48.174;11.562;2023-08-07T00:37:50;16.40;97.80
27803;DHT22;15182;48.174;11.562;2023-08-07T00:40:18;16.40;97.90
27803;DHT22;15182;48.174;11.562;2023-08-07T00:42:46;16.30;98.00
27803;DHT22;15182;48.174;11.562;2023-08-07T00:45:14;16.30;98.10
27803;DHT22;15182;48.174;11.562;2023-08-07T00:47:44;16.20;98.20
27803;DHT22;15182;48.174;11.562;2023-08-07T00:50:12;16.20;98.40
27803;DHT22;15182;48.174;11.562;2023-08-07T00:52:41;16.20;98.50
27803;DHT22;15182;48.174;11.562;2023-08-07T00:55:09;16.10;98.70
27803;DHT22;15182;48.174;11.562;2023-08-07T00:57:37;16.10;98.80
27803;DHT22;15182;48.174;11.562;2023-08-07T01:00:06;16.00;99.00
27803;DHT22;15182;48.174;11.562;2023-08-07T01:02:35;16.00;99.20
27803;DHT22;15182;48.174;11.562;2023-08-07T01:05:03;15.90;99.40
27803;DHT22;15182;48.174;11.562;2023-08-07T01:07:31;15.90;99.50
27803;DHT22;15182;48.174;11.562;2023-08-07T01:10:00;15.80;99.60
27803;DHT22;15182;48.174;11.562;2023-08-07T01:12:31;15.80;99.90
27803;DHT22;15182;48.174;11.562;2023-08-07T01:15:06;15.70;99.90
27803;DHT22;15182;48.174;11.562;2023-08-07T01:17:39;15.70;99.90
27803;DHT22;15182;48.174;11.562;2023-08-07T01:20:09;15.70;99.90
27803;DHT22;15182;48.174;11.562;2023-08-07T01:22:39;15.60;99.90
27803;DHT22;15182;48.174;11.562;2023-08-07T01:25:07;15.60;99.90
27803;DHT22;15182;48.174;11.562;2023-08-07T01:27:36;15.60;99.90
27803;DHT22;15182;48.174;11.562;2023-08-07T01:30:11;15.50;99.90
27803;DHT22;15182;48.174;11.562;2023-08-07T01:32:49;15.50;99.90
27803;DHT22;15182;48.174;11.562;2023-08-07T01:35:27;15.50;99.90
27803;DHT22;15182;48.174;11.562;2023-08-07T01:37:59;15.40;99.90
27803;DHT22;15182;48.174;11.562;2023-08-07T01:40:28;15.40;99.90
27803;DHT22;15182;48.174;11.562;2023-08-07T01:42:56;15.40;99.90
27803;DHT22;15182;48.174;11.562;2023-08-07T01:45:25;15.40;99.90
27803;DHT22;15182;48.174;11.562;2023-08-07T01:47:54;15.40;99.90
27803;DHT22;15182;48.174;11.562;2023-08-07T01:50:23;15.30;99.90
27803;DHT22;15182;48.174;11.562;2023-08-07T01:52:52;15.40;99.90
27803;DHT22;15182;48.174;11.562;2023-08-07T01:55:23;15.30;99.90
27803;DHT22;15182;48.174;11.562;2023-08-07T01:57:51;15.30;99.90
27803;DHT22;15182;48.174;11.562;2023-08-07T02:00:20;15.30;99.90
27803;DHT22;15182;48.174;11.562;2023-08-07T02:02:48;15.20;99.90
27803;DHT22;15182;48.174;11.562;2023-08-07T02:05:16;15.20;99.90
27803;DHT22;15182;48.174;11.562;2023-08-07T02:07:44;15.20;99.90
27803;DHT22;15182;48.174;11.562;2023-08-07T02:10:12;15.20;99.90
27803;DHT22;15182;48.174;11.562;2023-08-07T02:12:41;15.10;99.90
27803;DHT22;15182;48.174;11.562;2023-08-07T02:15:09;15.10;99.90
27803;DHT22;15182;48.174;11.562;2023-08-07T02:17:37;15.10;99.90
27803;DHT22;15182;48.174;11.562;2023-08-07T02:20:08;15.10;99.90
27803;DHT22;15182;48.174;11.562;2023-08-07T02:22:36;15.10;99.90
27803;DHT22;15182;48.174;11.562;2023-08-07T02:25:05;15.20;99.90
27803;DHT22;15182;48.174;11.562;2023-08-07T02:27:33;15.10;99.90
27803;DHT22;15182;48.174;11.562;2023-08-07T02:30:03;15.10;99.90
27803;DHT22;15182;48.174;11.562;2023-08-07T02:32:31;15.10;99.90
27803;DHT22;15182;48.174;11.562;2023-08-07T02:34:59;15.10;99.90
27803;DHT22;15182;48.174;11.562;2023-08-07T02:37:27;15.10;99.90
27803;DHT22;15182;48.174;11.562;2023-08-07T02:39:55;15.10;99.90
27803;DHT22;15182;48.174;11.562;2023-08-07T02:42:22;15.10;99.90
27803;DHT22;15182;48.174;11.562;2023-08-07T02:44:50;15.10;99.90
27803;DHT22;15182;48.174;11.562;2023-08-07T02:47:19;15.10;99.90
27803;DHT22;15182;48.174;11.562;2023-08-07T02:49:47;15.10;99.90
27803;DHT22;15182;48.174;11.562;2023-08-07T02:52:15;15.00;99.90
27803;DHT22;15182;48.174;11.562;2023-08-07T02:54:43;15.10;99.90
27803;DHT22;15182;48.174;11.562;2023-08-07T02:57:10;15.00;99.90
27803;DHT22;15182;48.174;11.562;2023-08-07T02:59:38;15.00;99.90
27803;DHT22;15182;48.174;11.562;2023-08-07T03:02:06;15.00;99.90
27803;DHT22;15182;48.174;11.562;2023-08-07T03:04:35;15.00;99.90
27803;DHT22;15182;48.174;11.562;2023-08-07T03:07:03;15.00;99.90
27803;DHT22;15182;48.174;11.562;2023-08-07T03:09:31;15.00;99.90
27803;DHT22;15182;48.174;11.562;2023-08-07T03:11:59;15.00;99.90
27803;DHT22;15182;48.174;11.562;2023-08-07T03:14:30;15.00;99.90
27803;DHT22;15182;48.174;11.562;2023-08-07T03:16:58;15.00;99.90
27803;DHT22;15182;48.174;11.562;2023-08-07T03:19:26;15.00;99.90
27803;DHT22;15182;48.174;11.562;2023-08-07T03:21:55;15.00;99.90
27803;DHT22;15182;48.174;11.562;2023-08-07T03:24:23;15.00;99.90
27803;DHT22;15182;48.174;11.562;2023-08-07T03:26:51;15.00;99.90
27803;DHT22;15182;48.174;11.562;2023-08-07T03:29:19;15.00;99.90
27803;DHT22;15182;48.174;11.562;2023-08-07T03:31:47;15.00;99.90
27803;DHT22;15182;48.174;11.562;2023-08-07T03:34:15;15.00;99.90
27803;DHT22;15182;48.174;11.562;2023-08-07T03:36:43;15.00;99.90
27803;DHT22;15182;48.174;11.562;2023-08-07T03:39:12;15.00;99.90
27803;DHT22;15182;48.174;11.562;2023-08-07T03:41:40;15.00;99.90
27803;DHT22;15182;48.174;11.562;2023-08-07T03:44:11;15.00;99.90
27803;DHT22;15182;48.174;11.562;2023-08-07T03:46:39;15.00;99.90
27803;DHT22;15182;48.174;11.562;2023-08-07T03:49:07;15.10;99.90
27803;DHT22;15182;48.174;11.562;2023-08-07T03:51:34;15.10;99.90
27803;DHT22;15182;48.174;11.562;2023-08-07T03:54:02;15.10;99.90
27803;DHT22;15182;48.174;11.562;2023-08-07T03:56:32;15.10;99.90
27803;DHT22;15182;48.174;11.562;2023-08-07T03:59:03;15.10;99.90
27803;DHT22;15182;48.174;11.562;2023-08-07T04:01:31;15.10;99.90
27803;DHT22;15182;48.174;11.562;2023-08-07T04:03:59;15.10;99.90
27803;DHT22;15182;48.174;11.562;2023-08-07T04:06:27;15.10;99.90
27803;DHT22;15182;48.174;11.562;2023-08-07T04:08:55;15.10;99.90
27803;DHT22;15182;48.174;11.562;2023-08-07T04:11:23;15.10;99.90
27803;DHT22;15182;48.174;11.562;2023-08-07T04:13:52;15.10;99.90
27803;DHT22;15182;48.174;11.562;2023-08-07T04:16:20;15.10;99.90
27803;DHT22;15182;48.174;11.562;2023-08-07T04:18:48;15.10;99.90
27803;DHT22;15182;48.174;11.562;2023-08-07T04:21:15;15.10;99.90
27803;DHT22;15182;48.174;11.562;2023-08-07T04:23:43;15.10;99.90
27803;DHT22;15182;48.174;11.562;2023-08-07T04:26:11;15.10;99.90
27803;DHT22;15182;48.174;11.562;2023-08-07T04:28:40;15.10;99.90
27803;DHT22;15182;48.174;11.562;2023-08-07T04:31:09;15.10;99.90
27803;DHT22;15182;48.174;11.562;2023-08-07T04:33:37;15.10;99.90
27803;DHT22;15182;48.174;11.562;2023-08-07T04:36:05;15.10;99.90
27803;DHT22;15182;48.174;11.562;2023-08-07T04:38:33;15.20;99.90
27803;DHT22;15182;48.174;11.562;2023-08-07T04:41:01;15.20;99.90
27803;DHT22;15182;48.174;11.562;2023-08-07T04:43:29;15.20;99.90
27803;DHT22;15182;48.174;11.562;2023-08-07T04:45:57;15.20;99.90
27803;DHT22;15182;48.174;11.562;2023-08-07T04:48:26;15.20;99.90
27803;DHT22;15182;48.174;11.562;2023-08-07T04:50:56;15.30;99.90
27803;DHT22;15182;48.174;11.562;2023-08-07T04:53:24;15.30;99.90
27803;DHT22;15182;48.174;11.562;2023-08-07T04:55:51;15.30;99.90
27803;DHT22;15182;48.174;11.562;2023-08-07T04:58:19;15.30;99.90
27803;DHT22;15182;48.174;11.562;2023-08-07T05:00:47;15.30;99.90
27803;DHT22;15182;48.174;11.562;2023-08-07T05:03:15;15.30;99.90
27803;DHT22;15182;48.174;11.562;2023-08-07T05:05:46;15.30;99.90
27803;DHT22;15182;48.174;11.562;2023-08-07T05:08:13;15.30;99.90
27803;DHT22;15182;48.174;11.562;2023-08-07T05:10:41;15.40;99.90
27803;DHT22;15182;48.174;11.562;2023-08-07T05:13:09;15.40;99.80
27803;DHT22;15182;48.174;11.562;2023-08-07T05:15:37;15.40;99.70
27803;DHT22;15182;48.174;11.562;2023-08-07T05:18:07;15.40;99.90
27803;DHT22;15182;48.174;11.562;2023-08-07T05:20:34;15.40;99.60
27803;DHT22;15182;48.174;11.562;2023-08-07T05:23:05;15.40;99.50
27803;DHT22;15182;48.174;11.562;2023-08-07T05:25:32;15.50;99.60
27803;DHT22;15182;48.174;11.562;2023-08-07T05:28:00;15.50;99.40
27803;DHT22;15182;48.174;11.562;2023-08-07T05:30:29;15.50;99.30
27803;DHT22;15182;48.174;11.562;2023-08-07T05:32:57;15.50;99.50
27803;DHT22;15182;48.174;11.562;2023-08-07T05:35:25;15.50;99.00
27803;DHT22;15182;48.174;11.562;2023-08-07T05:37:53;15.50;99.20
27803;DHT22;15182;48.174;11.562;2023-08-07T05:40:22;15.50;98.80
27803;DHT22;15182;48.174;11.562;2023-08-07T05:42:50;15.50;98.80
27803;DHT22;15182;48.174;11.562;2023-08-07T05:45:18;15.50;98.90
27803;DHT22;15182;48.174;11.562;2023-08-07T05:47:46;15.50;98.80
27803;DHT22;15182;48.174;11.562;2023-08-07T05:50:13;15.50;98.70
27803;DHT22;15182;48.174;11.562;2023-08-07T05:52:41;15.60;98.60
27803;DHT22;15182;48.174;11.562;2023-08-07T05:55:09;15.60;98.60
27803;DHT22;15182;48.174;11.562;2023-08-07T05:57:38;15.60;98.60
27803;DHT22;15182;48.174;11.562;2023-08-07T06:00:07;15.50;98.50
27803;DHT22;15182;48.174;11.562;2023-08-07T06:02:40;15.60;98.50
27803;DHT22;15182;48.174;11.562;2023-08-07T06:05:08;15.50;98.50
27803;DHT22;15182;48.174;11.562;2023-08-07T06:07:38;15.60;98.50
27803;DHT22;15182;48.174;11.562;2023-08-07T06:10:06;15.50;98.30
27803;DHT22;15182;48.174;11.562;2023-08-07T06:12:35;15.60;98.30
27803;DHT22;15182;48.174;11.562;2023-08-07T06:15:05;15.50;98.20
27803;DHT22;15182;48.174;11.562;2023-08-07T06:17:33;15.50;98.10
27803;DHT22;15182;48.174;11.562;2023-08-07T06:20:00;15.50;98.20
27803;DHT22;15182;48.174;11.562;2023-08-07T06:22:30;15.60;98.50
27803;DHT22;15182;48.174;11.562;2023-08-07T06:24:59;15.60;98.20
27803;DHT22;15182;48.174;11.562;2023-08-07T06:27:26;15.60;98.20
27803;DHT22;15182;48.174;11.562;2023-08-07T06:29:54;15.60;98.50
27803;DHT22;15182;48.174;11.562;2023-08-07T06:32:25;15.60;98.10
27803;DHT22;15182;48.174;11.562;2023-08-07T06:34:53;15.60;98.10
27803;DHT22;15182;48.174;11.562;2023-08-07T06:37:21;15.60;98.50
27803;DHT22;15182;48.174;11.562;2023-08-07T06:39:49;15.70;98.00
27803;DHT22;15182;48.174;11.562;2023-08-07T06:42:16;15.70;97.90
27803;DHT22;15182;48.174;11.562;2023-08-07T06:44:47;15.70;97.70
27803;DHT22;15182;48.174;11.562;2023-08-07T06:47:15;15.70;97.70
27803;DHT22;15182;48.174;11.562;2023-08-07T06:49:44;15.80;97.70
27803;DHT22;15182;48.174;11.562;2023-08-07T06:52:11;15.80;97.70
27803;DHT22;15182;48.174;11.562;2023-08-07T06:54:39;15.80;97.70
27803;DHT22;15182;48.174;11.562;2023-08-07T06:57:07;15.90;97.60
27803;DHT22;15182;48.174;11.562;2023-08-07T06:59:35;15.90;97.50
27803;DHT22;15182;48.174;11.562;2023-08-07T07:02:03;16.00;97.50
27803;DHT22;15182;48.174;11.562;2023-08-07T07:04:31;16.00;97.50
27803;DHT22;15182;48.174;11.562;2023-08-07T07:07:01;16.00;97.40
27803;DHT22;15182;48.174;11.562;2023-08-07T07:09:29;16.00;97.20
27803;DHT22;15182;48.174;11.562;2023-08-07T07:11:57;16.10;97.20
27803;DHT22;15182;48.174;11.562;2023-08-07T07:14:24;16.10;97.10
27803;DHT22;15182;48.174;11.562;2023-08-07T07:16:52;16.20;97.00
27803;DHT22;15182;48.174;11.562;2023-08-07T07:19:20;16.20;96.90
27803;DHT22;15182;48.174;11.562;2023-08-07T07:21:48;16.30;96.80
27803;DHT22;15182;48.174;11.562;2023-08-07T07:24:17;16.30;96.80
27803;DHT22;15182;48.174;11.562;2023-08-07T07:26:45;16.40;96.60
27803;DHT22;15182;48.174;11.562;2023-08-07T07:29:13;16.40;96.60
27803;DHT22;15182;48.174;11.562;2023-08-07T07:31:40;16.50;96.40
27803;DHT22;15182;48.174;11.562;2023-08-07T07:34:08;16.60;96.30
27803;DHT22;15182;48.174;11.562;2023-08-07T07:36:36;16.60;96.20
27803;DHT22;15182;48.174;11.562;2023-08-07T07:39:04;16.70;96.10
27803;DHT22;15182;48.174;11.562;2023-08-07T07:41:33;16.70;95.90
27803;DHT22;15182;48.174;11.562;2023-08-07T07:44:01;16.80;95.80
27803;DHT22;15182;48.174;11.562;2023-08-07T07:46:29;16.80;95.70
27803;DHT22;15182;48.174;11.562;2023-08-07T07:48:58;16.80;95.80
27803;DHT22;15182;48.174;11.562;2023-08-07T07:51:27;16.90;95.60
27803;DHT22;15182;48.174;11.562;2023-08-07T07:53:55;17.00;95.50
27803;DHT22;15182;48.174;11.562;2023-08-07T07:56:23;17.00;95.30
27803;DHT22;15182;48.174;11.562;2023-08-07T07:58:52;17.00;95.20
27803;DHT22;15182;48.174;11.562;2023-08-07T08:01:20;17.10;94.90
27803;DHT22;15182;48.174;11.562;2023-08-07T08:03:48;17.10;94.90
27803;DHT22;15182;48.174;11.562;2023-08-07T08:06:15;17.10;95.00
27803;DHT22;15182;48.174;11.562;2023-08-07T08:08:43;17.10;94.80
27803;DHT22;15182;48.174;11.562;2023-08-07T08:11:11;17.20;94.90
27803;DHT22;15182;48.174;11.562;2023-08-07T08:13:39;17.20;94.70
27803;DHT22;15182;48.174;11.562;2023-08-07T08:16:08;17.20;94.80
27803;DHT22;15182;48.174;11.562;2023-08-07T08:18:36;17.20;94.70
27803;DHT22;15182;48.174;11.562;2023-08-07T08:21:04;17.20;94.80
27803;DHT22;15182;48.174;11.562;2023-08-07T08:23:32;17.20;94.70
27803;DHT22;15182;48.174;11.562;2023-08-07T08:26:01;17.20;94.60
27803;DHT22;15182;48.174;11.562;2023-08-07T08:28:29;17.20;94.60
27803;DHT22;15182;48.174;11.562;2023-08-07T08:30:56;17.20;94.80
27803;DHT22;15182;48.174;11.562;2023-08-07T08:33:26;17.20;94.60
27803;DHT22;15182;48.174;11.562;2023-08-07T08:35:53;17.20;94.40
27803;DHT22;15182;48.174;11.562;2023-08-07T08:38:21;17.20;94.50
27803;DHT22;15182;48.174;11.562;2023-08-07T08:40:51;17.20;94.70
27803;DHT22;15182;48.174;11.562;2023-08-07T08:43:20;17.20;94.50
27803;DHT22;15182;48.174;11.562;2023-08-07T08:45:48;17.20;94.40
27803;DHT22;15182;48.174;11.562;2023-08-07T08:48:19;17.20;94.40
27803;DHT22;15182;48.174;11.562;2023-08-07T08:50:52;17.20;94.30
27803;DHT22;15182;48.174;11.562;2023-08-07T08:53:20;17.20;94.20
27803;DHT22;15182;48.174;11.562;2023-08-07T08:55:49;17.20;94.20
27803;DHT22;15182;48.174;11.562;2023-08-07T08:58:17;17.20;94.30
27803;DHT22;15182;48.174;11.562;2023-08-07T09:00:46;17.20;94.10
27803;DHT22;15182;48.174;11.562;2023-08-07T09:03:15;17.20;94.00
27803;DHT22;15182;48.174;11.562;2023-08-07T09:05:45;17.20;94.00
27803;DHT22;15182;48.174;11.562;2023-08-07T09:08:15;17.20;94.00
27803;DHT22;15182;48.174;11.562;2023-08-07T09:10:43;17.30;94.00
27803;DHT22;15182;48.174;11.562;2023-08-07T09:13:14;17.30;93.90
27803;DHT22;15182;48.174;11.562;2023-08-07T09:15:43;17.30;93.70
27803;DHT22;15182;48.174;11.562;2023-08-07T09:18:17;17.30;93.70
27803;DHT22;15182;48.174;11.562;2023-08-07T09:20:45;17.30;94.20
27803;DHT22;15182;48.174;11.562;2023-08-07T09:23:16;17.30;93.80
27803;DHT22;15182;48.174;11.562;2023-08-07T09:25:44;17.30;94.10
27803;DHT22;15182;48.174;11.562;2023-08-07T09:28:12;17.30;93.70
27803;DHT22;15182;48.174;11.562;2023-08-07T09:30:41;17.30;94.20
27803;DHT22;15182;48.174;11.562;2023-08-07T09:33:10;17.30;93.80
27803;DHT22;15182;48.174;11.562;2023-08-07T09:35:40;17.30;94.00
27803;DHT22;15182;48.174;11.562;2023-08-07T09:38:07;17.30;93.90
27803;DHT22;15182;48.174;11.562;2023-08-07T09:40:37;17.40;94.00
27803;DHT22;15182;48.174;11.562;2023-08-07T09:43:04;17.40;93.90
27803;DHT22;15182;48.174;11.562;2023-08-07T09:45:33;17.50;94.00
27803;DHT22;15182;48.174;11.562;2023-08-07T09:48:04;17.50;93.90
27803;DHT22;15182;48.174;11.562;2023-08-07T09:50:33;17.60;93.80
27803;DHT22;15182;48.174;11.562;2023-08-07T09:53:01;17.60;93.80
27803;DHT22;15182;48.174;11.562;2023-08-07T09:55:28;17.70;93.70
27803;DHT22;15182;48.174;11.562;2023-08-07T09:58:00;17.80;93.60
27803;DHT22;15182;48.174;11.562;2023-08-07T10:00:33;17.80;93.50
27803;DHT22;15182;48.174;11.562;2023-08-07T10:03:02;17.90;93.50
27803;DHT22;15182;48.174;11.562;2023-08-07T10:05:31;17.90;93.70
27803;DHT22;15182;48.174;11.562;2023-08-07T10:07:59;18.00;93.70
27803;DHT22;15182;48.174;11.562;2023-08-07T10:10:27;18.10;93.70
27803;DHT22;15182;48.174;11.562;2023-08-07T10:12:56;18.10;93.50
27803;DHT22;15182;48.174;11.562;2023-08-07T10:15:26;18.20;93.30
27803;DHT22;15182;48.174;11.562;2023-08-07T10:17:54;18.30;93.20
27803;DHT22;15182;48.174;11.562;2023-08-07T10:20:22;18.30;93.10
27803;DHT22;15182;48.174;11.562;2023-08-07T10:22:52;18.40;93.00
27803;DHT22;15182;48.174;11.562;2023-08-07T10:25:21;18.40;92.90
27803;DHT22;15182;48.174;11.562;2023-08-07T10:27:51;18.50;92.50
27803;DHT22;15182;48.174;11.562;2023-08-07T10:30:22;18.60;92.50
27803;DHT22;15182;48.174;11.562;2023-08-07T10:32:51;18.70;92.50
27803;DHT22;15182;48.174;11.562;2023-08-07T10:35:29;18.90;92.50
27803;DHT22;15182;48.174;11.562;2023-08-07T10:38:05;19.10;92.10
27803;DHT22;15182;48.174;11.562;2023-08-07T10:40:35;19.20;91.80
27803;DHT22;15182;48.174;11.562;2023-08-07T10:43:26;19.30;92.30
27803;DHT22;15182;48.174;11.562;2023-08-07T10:46:02;19.50;91.90
27803;DHT22;15182;48.174;11.562;2023-08-07T10:48:38;19.50;91.60
27803;DHT22;15182;48.174;11.562;2023-08-07T10:51:13;19.60;91.50
27803;DHT22;15182;48.174;11.562;2023-08-07T10:53:43;19.70;91.30
27803;DHT22;15182;48.174;11.562;2023-08-07T10:56:16;19.80;91.40
27803;DHT22;15182;48.174;11.562;2023-08-07T10:58:49;19.90;91.20
27803;DHT22;15182;48.174;11.562;2023-08-07T11:01:41;20.00;91.20
27803;DHT22;15182;48.174;11.562;2023-08-07T11:04:11;20.00;91.10
27803;DHT22;15182;48.174;11.562;2023-08-07T11:06:41;20.10;90.70
27803;DHT22;15182;48.174;11.562;2023-08-07T11:09:10;20.10;90.50
27803;DHT22;15182;48.174;11.562;2023-08-07T11:11:38;20.00;90.30
27803;DHT22;15182;48.174;11.562;2023-08-07T11:14:08;20.00;90.50
27803;DHT22;15182;48.174;11.562;2023-08-07T11:16:37;20.00;90.30
27803;DHT22;15182;48.174;11.562;2023-08-07T11:19:06;20.00;90.00
27803;DHT22;15182;48.174;11.562;2023-08-07T11:21:34;20.00;90.00
27803;DHT22;15182;48.174;11.562;2023-08-07T11:24:02;20.10;90.00
27803;DHT22;15182;48.174;11.562;2023-08-07T11:26:30;20.10;90.10
27803;DHT22;15182;48.174;11.562;2023-08-07T11:28:58;20.10;90.00
27803;DHT22;15182;48.174;11.562;2023-08-07T11:31:26;20.10;89.90
27803;DHT22;15182;48.174;11.562;2023-08-07T11:33:57;20.10;89.70
27803;DHT22;15182;48.174;11.562;2023-08-07T11:36:26;20.10;89.10
27803;DHT22;15182;48.174;11.562;2023-08-07T11:38:53;20.10;89.40
27803;DHT22;15182;48.174;11.562;2023-08-07T11:41:21;20.00;89.20
27803;DHT22;15182;48.174;11.562;2023-08-07T11:43:49;19.90;89.00
27803;DHT22;15182;48.174;11.562;2023-08-07T11:46:17;19.80;89.30
27803;DHT22;15182;48.174;11.562;2023-08-07T11:48:44;19.80;89.20
27803;DHT22;15182;48.174;11.562;2023-08-07T11:51:14;19.70;90.00
27803;DHT22;15182;48.174;11.562;2023-08-07T11:53:42;19.70;89.90
27803;DHT22;15182;48.174;11.562;2023-08-07T11:56:10;19.80;90.20
27803;DHT22;15182;48.174;11.562;2023-08-07T11:58:41;19.80;89.70
27803;DHT22;15182;48.174;11.562;2023-08-07T12:01:13;19.90;89.70
27803;DHT22;15182;48.174;11.562;2023-08-07T12:03:50;20.00;89.20
27803;DHT22;15182;48.174;11.562;2023-08-07T12:06:21;20.10;88.60
27803;DHT22;15182;48.174;11.562;2023-08-07T12:08:50;20.20;88.60
27803;DHT22;15182;48.174;11.562;2023-08-07T12:11:21;20.30;88.90
27803;DHT22;15182;48.174;11.562;2023-08-07T12:13:50;20.40;88.10
27803;DHT22;15182;48.174;11.562;2023-08-07T12:16:17;20.60;87.70
27803;DHT22;15182;48.174;11.562;2023-08-07T12:18:46;20.70;87.20
27803;DHT22;15182;48.174;11.562;2023-08-07T12:21:16;20.80;86.20
27803;DHT22;15182;48.174;11.562;2023-08-07T12:23:47;20.80;85.50
27803;DHT22;15182;48.174;11.562;2023-08-07T12:26:15;20.90;85.30
27803;DHT22;15182;48.174;11.562;2023-08-07T12:28:43;20.90;85.40
27803;DHT22;15182;48.174;11.562;2023-08-07T12:31:11;20.90;85.60
27803;DHT22;15182;48.174;11.562;2023-08-07T12:33:39;20.90;85.30
27803;DHT22;15182;48.174;11.562;2023-08-07T12:36:06;20.90;84.60
27803;DHT22;15182;48.174;11.562;2023-08-07T12:38:34;20.80;84.50
27803;DHT22;15182;48.174;11.562;2023-08-07T12:41:03;20.80;83.90
27803;DHT22;15182;48.174;11.562;2023-08-07T12:43:31;20.80;83.50
27803;DHT22;15182;48.174;11.562;2023-08-07T12:45:59;20.80;83.60
27803;DHT22;15182;48.174;11.562;2023-08-07T12:48:28;20.80;83.30
27803;DHT22;15182;48.174;11.562;2023-08-07T12:50:55;20.80;83.20
27803;DHT22;15182;48.174;11.562;2023-08-07T12:53:23;20.70;83.80
27803;DHT22;15182;48.174;11.562;2023-08-07T12:55:51;20.70;82.90
27803;DHT22;15182;48.174;11.562;2023-08-07T12:58:20;20.70;83.00
27803;DHT22;15182;48.174;11.562;2023-08-07T13:00:51;20.70;83.00
27803;DHT22;15182;48.174;11.562;2023-08-07T13:03:19;20.70;83.20
27803;DHT22;15182;48.174;11.562;2023-08-07T13:05:47;20.70;83.20
27803;DHT22;15182;48.174;11.562;2023-08-07T13:08:15;20.60;83.20
27803;DHT22;15182;48.174;11.562;2023-08-07T13:10:43;20.60;82.90
27803;DHT22;15182;48.174;11.562;2023-08-07T13:13:10;20.60;83.60
27803;DHT22;15182;48.174;11.562;2023-08-07T13:15:39;20.60;83.70
27803;DHT22;15182;48.174;11.562;2023-08-07T13:18:07;20.70;83.00
27803;DHT22;15182;48.174;11.562;2023-08-07T13:20:35;20.80;83.00
27803;DHT22;15182;48.174;11.562;2023-08-07T13:23:03;20.80;82.20
27803;DHT22;15182;48.174;11.562;2023-08-07T13:25:32;20.90;82.30
27803;DHT22;15182;48.174;11.562;2023-08-07T13:28:00;21.10;82.20
27803;DHT22;15182;48.174;11.562;2023-08-07T13:30:30;21.30;81.90
27803;DHT22;15182;48.174;11.562;2023-08-07T13:32:59;21.40;81.10
27803;DHT22;15182;48.174;11.562;2023-08-07T13:35:27;21.40;80.40
27803;DHT22;15182;48.174;11.562;2023-08-07T13:37:55;21.40;80.20
27803;DHT22;15182;48.174;11.562;2023-08-07T13:40:23;21.30;79.80
27803;DHT22;15182;48.174;11.562;2023-08-07T13:42:51;21.30;79.30
27803;DHT22;15182;48.174;11.562;2023-08-07T13:45:19;21.20;79.80
27803;DHT22;15182;48.174;11.562;2023-08-07T13:47:47;21.20;79.70
27803;DHT22;15182;48.174;11.562;2023-08-07T13:50:16;21.10;79.70
27803;DHT22;15182;48.174;11.562;2023-08-07T13:52:44;21.00;79.30
27803;DHT22;15182;48.174;11.562;2023-08-07T13:55:11;21.00;79.70
27803;DHT22;15182;48.174;11.562;2023-08-07T13:57:39;21.00;79.60
27803;DHT22;15182;48.174;11.562;2023-08-07T14:00:08;21.00;79.70
27803;DHT22;15182;48.174;11.562;2023-08-07T14:02:38;21.00;79.50
27803;DHT22;15182;48.174;11.562;2023-08-07T14:05:06;21.10;79.60
27803;DHT22;15182;48.174;11.562;2023-08-07T14:07:36;21.20;78.80
27803;DHT22;15182;48.174;11.562;2023-08-07T14:10:04;21.20;78.30
27803;DHT22;15182;48.174;11.562;2023-08-07T14:12:33;21.20;78.20
27803;DHT22;15182;48.174;11.562;2023-08-07T14:15:00;21.30;78.20
27803;DHT22;15182;48.174;11.562;2023-08-07T14:17:28;21.30;78.40
27803;DHT22;15182;48.174;11.562;2023-08-07T14:19:56;21.40;77.90
27803;DHT22;15182;48.174;11.562;2023-08-07T14:22:23;21.40;77.50
27803;DHT22;15182;48.174;11.562;2023-08-07T14:24:53;21.40;77.20
27803;DHT22;15182;48.174;11.562;2023-08-07T14:27:20;21.30;76.80
27803;DHT22;15182;48.174;11.562;2023-08-07T14:29:48;21.30;76.90
27803;DHT22;15182;48.174;11.562;2023-08-07T14:32:16;21.30;77.10
27803;DHT22;15182;48.174;11.562;2023-08-07T14:34:44;21.30;77.10
27803;DHT22;15182;48.174;11.562;2023-08-07T14:37:13;21.30;77.40
27803;DHT22;15182;48.174;11.562;2023-08-07T14:39:40;21.20;77.40
27803;DHT22;15182;48.174;11.562;2023-08-07T14:42:09;21.20;77.10
27803;DHT22;15182;48.174;11.562;2023-08-07T14:44:37;21.20;76.50
27803;DHT22;15182;48.174;11.562;2023-08-07T14:47:05;21.20;77.10
27803;DHT22;15182;48.174;11.562;2023-08-07T14:49:33;21.10;77.20
27803;DHT22;15182;48.174;11.562;2023-08-07T14:52:01;21.00;77.30
27803;DHT22;15182;48.174;11.562;2023-08-07T14:54:29;21.00;77.50
27803;DHT22;15182;48.174;11.562;2023-08-07T14:56:56;21.00;77.60
27803;DHT22;15182;48.174;11.562;2023-08-07T14:59:26;20.90;77.80
27803;DHT22;15182;48.174;11.562;2023-08-07T15:01:54;20.80;78.80
27803;DHT22;15182;48.174;11.562;2023-08-07T15:04:22;20.80;78.10
27803;DHT22;15182;48.174;11.562;2023-08-07T15:06:50;20.70;77.70
27803;DHT22;15182;48.174;11.562;2023-08-07T15:09:18;20.70;77.80
27803;DHT22;15182;48.174;11.562;2023-08-07T15:11:46;20.60;77.90
27803;DHT22;15182;48.174;11.562;2023-08-07T15:14:17;20.60;78.00
27803;DHT22;15182;48.174;11.562;2023-08-07T15:16:46;20.60;78.10
27803;DHT22;15182;48.174;11.562;2023-08-07T15:19:14;20.50;79.10
27803;DHT22;15182;48.174;11.562;2023-08-07T15:21:42;20.50;78.20
27803;DHT22;15182;48.174;11.562;2023-08-07T15:24:10;20.50;78.20